sensor_id;sensor_type;location;lat;lon;timestamp;pressure;altitude;pressure_sealevel;temperature;humidity
80397;BME280;69721;55.894;-3.052;2024-03-08T00:00:20;101618.28;;;7.24;47.56
80397;BME280;69721;55.894;-3.052;2024-03-08T00:02:41;101618.76;;;8.32;46.28
80397;BME280;69721;55.894;-3.052;2024-03-08T00:05:07;101622.64;;;9.64;44.27
80397;BME280;69721;55.894;-3.052;2024-03-08T00:07:31;101629.10;;;7.67;47.60
80397;BME280;69721;55.894;-3.052;2024-03-08T00:09:57;101628.18;;;8.01;48.82
80397;BME280;69721;55.894;-3.052;2024-03-08T00:12:23;101624.44;;;8.42;47.84
80397;BME280;69721;55.894;-3.052;2024-03-08T00:14:48;101630.66;;;6.38;52.71
80397;BME280;69721;55.894;-3.052;2024-03-08T00:17:13;101617.45;;;7.59;50.86
80397;BME280;69721;55.894;-3.052;2024-03-08T00:19:38;101609.84;;;7.10;51.09
80397;BME280;69721;55.894;-3.052;2024-03-08T00:22:04;101613.47;;;4.95;55.65
80397;BME280;69721;55.894;-3.052;2024-03-08T00:26:55;101604.99;;;5.70;54.94
80397;BME280;69721;55.894;-3.052;2024-03-08T00:29:20;101598.80;;;6.85;53.38
80397;BME280;69721;55.894;-3.052;2024-03-08T00:31:46;101595.82;;;6.64;52.14
80397;BME280;69721;55.894;-3.052;2024-03-08T00:34:11;101594.19;;;6.11;52.24
80397;BME280;69721;55.894;-3.052;2024-03-08T00:36:37;101592.27;;;6.38;52.67
80397;BME280;69721;55.894;-3.052;2024-03-08T00:39:02;101585.53;;;5.86;52.57
80397;BME280;69721;55.894;-3.052;2024-03-08T00:41:30;101580.46;;;6.20;52.16
80397;BME280;69721;55.894;-3.052;2024-03-08T00:43:53;101580.38;;;6.09;52.58
80397;BME280;69721;55.894;-3.052;2024-03-08T00:46:20;101574.97;;;6.96;51.11
80397;BME280;69721;55.894;-3.052;2024-03-08T00:48:44;101571.36;;;6.43;51.69
80397;BME280;69721;55.894;-3.052;2024-03-08T00:51:10;101578.74;;;4.86;55.05
80397;BME280;69721;55.894;-3.052;2024-03-08T00:53:36;101568.50;;;3.81;58.88
80397;BME280;69721;55.894;-3.052;2024-03-08T00:56:01;101557.94;;;3.78;59.29
80397;BME280;69721;55.894;-3.052;2024-03-08T00:58:27;101554.82;;;4.33;58.73
80397;BME280;69721;55.894;-3.052;2024-03-08T01:00:52;101555.56;;;5.30;55.96
80397;BME280;69721;55.894;-3.052;2024-03-08T01:03:18;101554.93;;;4.25;57.32
80397;BME280;69721;55.894;-3.052;2024-03-08T01:05:44;101549.88;;;5.58;54.70
80397;BME280;69721;55.894;-3.052;2024-03-08T01:08:10;101547.31;;;5.20;55.20
80397;BME280;69721;55.894;-3.052;2024-03-08T01:10:35;101543.20;;;5.72;54.15
80397;BME280;69721;55.894;-3.052;2024-03-08T01:13:01;101542.42;;;5.20;53.92
80397;BME280;69721;55.894;-3.052;2024-03-08T01:15:25;101544.07;;;4.83;54.77
80397;BME280;69721;55.894;-3.052;2024-03-08T01:17:51;101544.29;;;4.95;55.53
80397;BME280;69721;55.894;-3.052;2024-03-08T01:20:16;101538.57;;;5.76;53.49
80397;BME280;69721;55.894;-3.052;2024-03-08T01:22:42;101538.56;;;4.69;55.71
80397;BME280;69721;55.894;-3.052;2024-03-08T01:25:09;101537.23;;;4.15;57.09
80397;BME280;69721;55.894;-3.052;2024-03-08T01:27:34;101535.03;;;5.38;54.43
80397;BME280;69721;55.894;-3.052;2024-03-08T01:30:00;101537.79;;;4.83;55.84
80397;BME280;69721;55.894;-3.052;2024-03-08T01:32:25;101539.37;;;4.76;56.08
80397;BME280;69721;55.894;-3.052;2024-03-08T01:37:15;101527.36;;;3.48;59.13
80397;BME280;69721;55.894;-3.052;2024-03-08T01:39:41;101528.26;;;3.26;59.93
80397;BME280;69721;55.894;-3.052;2024-03-08T01:42:07;101521.25;;;2.99;60.17
80397;BME280;69721;55.894;-3.052;2024-03-08T01:44:32;101518.13;;;2.18;62.25
80397;BME280;69721;55.894;-3.052;2024-03-08T01:46:58;101517.03;;;2.90;61.58
80397;BME280;69721;55.894;-3.052;2024-03-08T01:49:25;101514.95;;;4.46;57.65
80397;BME280;69721;55.894;-3.052;2024-03-08T01:51:50;101516.84;;;3.89;58.41
80397;BME280;69721;55.894;-3.052;2024-03-08T01:54:15;101511.29;;;4.61;55.78
80397;BME280;69721;55.894;-3.052;2024-03-08T01:56:40;101504.79;;;5.50;53.51
80397;BME280;69721;55.894;-3.052;2024-03-08T01:59:06;101507.76;;;4.88;53.62
80397;BME280;69721;55.894;-3.052;2024-03-08T02:01:31;101503.59;;;5.23;54.28
80397;BME280;69721;55.894;-3.052;2024-03-08T02:03:56;101502.67;;;4.24;55.21
80397;BME280;69721;55.894;-3.052;2024-03-08T02:06:21;101493.48;;;5.90;52.49
80397;BME280;69721;55.894;-3.052;2024-03-08T02:08:47;101489.60;;;5.06;52.14
80397;BME280;69721;55.894;-3.052;2024-03-08T02:11:22;101485.99;;;6.16;51.71
80397;BME280;69721;55.894;-3.052;2024-03-08T02:13:47;101482.90;;;5.83;50.74
80397;BME280;69721;55.894;-3.052;2024-03-08T02:16:21;101482.45;;;5.53;51.73
80397;BME280;69721;55.894;-3.052;2024-03-08T02:18:39;101480.39;;;7.65;49.06
80397;BME280;69721;55.894;-3.052;2024-03-08T02:21:05;101478.47;;;8.13;47.61
80397;BME280;69721;55.894;-3.052;2024-03-08T02:23:30;101476.65;;;8.40;46.18
80397;BME280;69721;55.894;-3.052;2024-03-08T02:25:57;101473.76;;;8.49;45.27
80397;BME280;69721;55.894;-3.052;2024-03-08T02:28:28;101469.41;;;9.18;45.30
80397;BME280;69721;55.894;-3.052;2024-03-08T02:30:53;101464.22;;;9.59;43.86
80397;BME280;69721;55.894;-3.052;2024-03-08T02:33:19;101455.61;;;9.41;42.98
80397;BME280;69721;55.894;-3.052;2024-03-08T02:35:45;101443.69;;;9.61;43.51
80397;BME280;69721;55.894;-3.052;2024-03-08T02:38:10;101439.52;;;8.75;43.88
80397;BME280;69721;55.894;-3.052;2024-03-08T02:40:35;101430.55;;;9.55;42.68
80397;BME280;69721;55.894;-3.052;2024-03-08T02:43:01;101437.13;;;8.84;43.01
80397;BME280;69721;55.894;-3.052;2024-03-08T02:47:51;101430.34;;;6.76;45.62
80397;BME280;69721;55.894;-3.052;2024-03-08T02:50:16;101431.18;;;6.77;47.52
80397;BME280;69721;55.894;-3.052;2024-03-08T02:52:43;101432.73;;;6.31;47.82
80397;BME280;69721;55.894;-3.052;2024-03-08T02:55:09;101427.89;;;5.84;48.78
80397;BME280;69721;55.894;-3.052;2024-03-08T02:57:34;101423.06;;;6.89;48.00
80397;BME280;69721;55.894;-3.052;2024-03-08T02:59:59;101419.91;;;5.00;50.46
80397;BME280;69721;55.894;-3.052;2024-03-08T03:02:24;101410.57;;;7.25;47.20
80397;BME280;69721;55.894;-3.052;2024-03-08T03:04:50;101407.51;;;6.79;47.93
80397;BME280;69721;55.894;-3.052;2024-03-08T03:07:16;101397.59;;;6.87;47.39
80397;BME280;69721;55.894;-3.052;2024-03-08T03:09:41;101388.53;;;6.95;47.35
80397;BME280;69721;55.894;-3.052;2024-03-08T03:12:08;101379.45;;;6.39;47.79
80397;BME280;69721;55.894;-3.052;2024-03-08T03:14:32;101374.09;;;6.28;48.75
80397;BME280;69721;55.894;-3.052;2024-03-08T03:16:58;101381.81;;;3.86;52.86
80397;BME280;69721;55.894;-3.052;2024-03-08T03:19:24;101388.19;;;3.39;55.34
80397;BME280;69721;55.894;-3.052;2024-03-08T03:21:49;101378.16;;;4.88;52.31
80397;BME280;69721;55.894;-3.052;2024-03-08T03:24:15;101378.27;;;4.35;53.61
80397;BME280;69721;55.894;-3.052;2024-03-08T03:26:41;101371.42;;;5.39;50.94
80397;BME280;69721;55.894;-3.052;2024-03-08T03:29:07;101372.93;;;6.38;49.35
80397;BME280;69721;55.894;-3.052;2024-03-08T03:31:32;101367.26;;;4.78;52.01
80397;BME280;69721;55.894;-3.052;2024-03-08T03:33:57;101368.67;;;4.38;53.88
80397;BME280;69721;55.894;-3.052;2024-03-08T03:36:23;101357.90;;;4.35;52.72
80397;BME280;69721;55.894;-3.052;2024-03-08T03:38:48;101361.44;;;4.77;53.99
80397;BME280;69721;55.894;-3.052;2024-03-08T03:41:14;101352.09;;;4.91;52.38
80397;BME280;69721;55.894;-3.052;2024-03-08T03:43:39;101347.23;;;5.39;52.90
80397;BME280;69721;55.894;-3.052;2024-03-08T03:46:06;101343.92;;;6.46;49.97
80397;BME280;69721;55.894;-3.052;2024-03-08T03:48:30;101341.25;;;6.43;50.54
80397;BME280;69721;55.894;-3.052;2024-03-08T03:50:55;101346.61;;;6.08;51.15
80397;BME280;69721;55.894;-3.052;2024-03-08T03:58:12;101346.27;;;4.36;54.08
80397;BME280;69721;55.894;-3.052;2024-03-08T04:00:38;101342.56;;;4.84;54.11
80397;BME280;69721;55.894;-3.052;2024-03-08T04:03:04;101332.46;;;5.11;53.28
80397;BME280;69721;55.894;-3.052;2024-03-08T04:05:29;101327.40;;;4.14;55.28
80397;BME280;69721;55.894;-3.052;2024-03-08T04:07:55;101328.10;;;3.89;55.97
80397;BME280;69721;55.894;-3.052;2024-03-08T04:10:20;101330.88;;;3.59;57.93
80397;BME280;69721;55.894;-3.052;2024-03-08T04:12:45;101320.49;;;4.89;53.59
80397;BME280;69721;55.894;-3.052;2024-03-08T04:15:11;101323.17;;;5.39;52.97
80397;BME280;69721;55.894;-3.052;2024-03-08T04:17:36;101321.98;;;6.21;51.08
80397;BME280;69721;55.894;-3.052;2024-03-08T04:20:02;101320.55;;;5.62;51.15
80397;BME280;69721;55.894;-3.052;2024-03-08T04:22:27;101320.99;;;4.91;53.53
80397;BME280;69721;55.894;-3.052;2024-03-08T04:24:53;101320.15;;;4.17;56.12
80397;BME280;69721;55.894;-3.052;2024-03-08T04:27:18;101321.43;;;3.71;57.21
80397;BME280;69721;55.894;-3.052;2024-03-08T04:29:44;101318.18;;;3.70;56.93
80397;BME280;69721;55.894;-3.052;2024-03-08T04:32:10;101313.06;;;4.91;55.66
80397;BME280;69721;55.894;-3.052;2024-03-08T04:34:35;101306.64;;;4.61;56.00
80397;BME280;69721;55.894;-3.052;2024-03-08T04:37:01;101306.92;;;5.55;54.35
80397;BME280;69721;55.894;-3.052;2024-03-08T04:39:26;101311.09;;;4.49;55.47
80397;BME280;69721;55.894;-3.052;2024-03-08T04:41:51;101308.36;;;6.20;52.28
80397;BME280;69721;55.894;-3.052;2024-03-08T04:44:19;101305.45;;;5.59;53.45
80397;BME280;69721;55.894;-3.052;2024-03-08T04:46:44;101297.80;;;6.31;51.01
80397;BME280;69721;55.894;-3.052;2024-03-08T04:49:12;101296.66;;;4.85;55.10
80397;BME280;69721;55.894;-3.052;2024-03-08T04:51:37;101294.61;;;4.62;56.02
80397;BME280;69721;55.894;-3.052;2024-03-08T04:54:04;101291.09;;;5.12;55.36
80397;BME280;69721;55.894;-3.052;2024-03-08T04:56:30;101286.52;;;5.70;53.37
80397;BME280;69721;55.894;-3.052;2024-03-08T04:58:55;101284.52;;;5.05;54.93
80397;BME280;69721;55.894;-3.052;2024-03-08T05:01:21;101281.43;;;4.96;55.26
80397;BME280;69721;55.894;-3.052;2024-03-08T05:06:26;101279.11;;;4.84;54.80
80397;BME280;69721;55.894;-3.052;2024-03-08T05:08:37;101279.39;;;5.08;55.00
80397;BME280;69721;55.894;-3.052;2024-03-08T05:11:03;101277.14;;;6.00;52.87
80397;BME280;69721;55.894;-3.052;2024-03-08T05:13:29;101279.14;;;5.50;53.09
80397;BME280;69721;55.894;-3.052;2024-03-08T05:15:53;101277.70;;;4.42;56.43
80397;BME280;69721;55.894;-3.052;2024-03-08T05:18:19;101274.42;;;4.41;56.35
80397;BME280;69721;55.894;-3.052;2024-03-08T05:20:45;101274.36;;;4.40;56.93
80397;BME280;69721;55.894;-3.052;2024-03-08T05:23:11;101275.25;;;4.28;57.56
80397;BME280;69721;55.894;-3.052;2024-03-08T05:25:36;101272.52;;;5.79;54.93
80397;BME280;69721;55.894;-3.052;2024-03-08T05:28:02;101271.13;;;5.51;55.38
80397;BME280;69721;55.894;-3.052;2024-03-08T05:30:28;101272.51;;;4.61;57.52
80397;BME280;69721;55.894;-3.052;2024-03-08T05:32:53;101273.35;;;5.31;56.15
80397;BME280;69721;55.894;-3.052;2024-03-08T05:35:19;101267.82;;;4.67;56.62
80397;BME280;69721;55.894;-3.052;2024-03-08T05:37:44;101263.39;;;4.62;56.45
80397;BME280;69721;55.894;-3.052;2024-03-08T05:40:10;101263.48;;;4.78;57.66
80397;BME280;69721;55.894;-3.052;2024-03-08T05:42:36;101261.07;;;4.01;58.33
80397;BME280;69721;55.894;-3.052;2024-03-08T05:45:02;101267.81;;;3.49;60.83
80397;BME280;69721;55.894;-3.052;2024-03-08T05:47:27;101259.03;;;4.05;59.78
80397;BME280;69721;55.894;-3.052;2024-03-08T05:49:52;101263.76;;;3.47;61.52
80397;BME280;69721;55.894;-3.052;2024-03-08T05:52:18;101269.71;;;3.12;62.42
80397;BME280;69721;55.894;-3.052;2024-03-08T05:54:44;101268.28;;;3.75;61.27
80397;BME280;69721;55.894;-3.052;2024-03-08T05:57:13;101263.51;;;4.60;59.44
80397;BME280;69721;55.894;-3.052;2024-03-08T05:59:39;101268.65;;;3.86;60.86
80397;BME280;69721;55.894;-3.052;2024-03-08T06:02:04;101263.80;;;5.00;57.84
80397;BME280;69721;55.894;-3.052;2024-03-08T06:04:30;101266.75;;;2.62;62.89
80397;BME280;69721;55.894;-3.052;2024-03-08T06:06:55;101256.61;;;4.84;58.24
80397;BME280;69721;55.894;-3.052;2024-03-08T06:09:21;101255.50;;;4.48;58.89
80397;BME280;69721;55.894;-3.052;2024-03-08T06:11:46;101253.96;;;4.13;57.85
80397;BME280;69721;55.894;-3.052;2024-03-08T06:16:37;101253.53;;;5.55;53.85
80397;BME280;69721;55.894;-3.052;2024-03-08T06:19:03;101254.52;;;6.05;54.25
80397;BME280;69721;55.894;-3.052;2024-03-08T06:21:28;101251.17;;;5.26;56.81
80397;BME280;69721;55.894;-3.052;2024-03-08T06:23:54;101248.27;;;4.69;57.57
80397;BME280;69721;55.894;-3.052;2024-03-08T06:26:20;101245.12;;;3.69;59.33
80397;BME280;69721;55.894;-3.052;2024-03-08T06:28:45;101248.99;;;3.81;59.10
80397;BME280;69721;55.894;-3.052;2024-03-08T06:31:11;101247.20;;;4.19;59.90
80397;BME280;69721;55.894;-3.052;2024-03-08T06:33:36;101244.79;;;5.34;56.06
80397;BME280;69721;55.894;-3.052;2024-03-08T06:36:01;101253.32;;;2.66;61.33
80397;BME280;69721;55.894;-3.052;2024-03-08T06:38:27;101252.35;;;3.87;59.84
80397;BME280;69721;55.894;-3.052;2024-03-08T06:40:52;101246.90;;;3.93;58.47
80397;BME280;69721;55.894;-3.052;2024-03-08T06:43:18;101250.08;;;3.59;59.72
80397;BME280;69721;55.894;-3.052;2024-03-08T06:45:43;101245.67;;;4.78;56.37
80397;BME280;69721;55.894;-3.052;2024-03-08T06:48:09;101243.84;;;4.97;55.85
80397;BME280;69721;55.894;-3.052;2024-03-08T06:50:34;101239.51;;;4.10;56.99
80397;BME280;69721;55.894;-3.052;2024-03-08T06:52:59;101241.09;;;5.24;54.36
80397;BME280;69721;55.894;-3.052;2024-03-08T06:55:24;101236.58;;;5.65;53.40
80397;BME280;69721;55.894;-3.052;2024-03-08T06:57:50;101237.50;;;5.22;53.15
80397;BME280;69721;55.894;-3.052;2024-03-08T07:00:16;101240.32;;;5.15;53.59
80397;BME280;69721;55.894;-3.052;2024-03-08T07:02:41;101246.22;;;4.02;55.46
80397;BME280;69721;55.894;-3.052;2024-03-08T07:05:07;101246.69;;;3.66;56.65
80397;BME280;69721;55.894;-3.052;2024-03-08T07:07:32;101243.81;;;5.34;53.45
80397;BME280;69721;55.894;-3.052;2024-03-08T07:09:59;101254.09;;;3.16;57.67
80397;BME280;69721;55.894;-3.052;2024-03-08T07:12:24;101252.58;;;4.02;56.45
80397;BME280;69721;55.894;-3.052;2024-03-08T07:14:49;101251.58;;;3.99;55.96
80397;BME280;69721;55.894;-3.052;2024-03-08T07:17:15;101258.61;;;3.24;58.14
80397;BME280;69721;55.894;-3.052;2024-03-08T07:19:40;101251.27;;;4.13;56.20
80397;BME280;69721;55.894;-3.052;2024-03-08T07:22:06;101253.27;;;4.37;54.62
80397;BME280;69721;55.894;-3.052;2024-03-08T07:24:46;101251.37;;;4.42;54.86
80397;BME280;69721;55.894;-3.052;2024-03-08T07:26:57;101255.48;;;4.93;53.47
80397;BME280;69721;55.894;-3.052;2024-03-08T07:29:22;101258.01;;;3.34;56.42
80397;BME280;69721;55.894;-3.052;2024-03-08T07:31:48;101255.00;;;3.31;57.02
80397;BME280;69721;55.894;-3.052;2024-03-08T07:34:13;101252.09;;;3.46;57.89
80397;BME280;69721;55.894;-3.052;2024-03-08T07:36:40;101248.27;;;4.43;55.45
80397;BME280;69721;55.894;-3.052;2024-03-08T07:39:05;101246.32;;;4.38;55.72
80397;BME280;69721;55.894;-3.052;2024-03-08T07:41:31;101245.33;;;5.60;52.76
80397;BME280;69721;55.894;-3.052;2024-03-08T07:43:56;101240.68;;;4.26;54.87
80397;BME280;69721;55.894;-3.052;2024-03-08T07:46:22;101242.18;;;4.58;54.76
80397;BME280;69721;55.894;-3.052;2024-03-08T07:48:48;101242.58;;;4.93;53.75
80397;BME280;69721;55.894;-3.052;2024-03-08T07:51:16;101251.14;;;3.15;58.19
80397;BME280;69721;55.894;-3.052;2024-03-08T07:53:39;101246.19;;;3.26;58.08
80397;BME280;69721;55.894;-3.052;2024-03-08T07:56:05;101245.32;;;3.24;58.87
80397;BME280;69721;55.894;-3.052;2024-03-08T07:58:30;101242.39;;;3.28;59.03
80397;BME280;69721;55.894;-3.052;2024-03-08T08:00:55;101240.60;;;4.26;55.88
80397;BME280;69721;55.894;-3.052;2024-03-08T08:03:21;101238.55;;;4.45;54.76
80397;BME280;69721;55.894;-3.052;2024-03-08T08:05:46;101236.02;;;4.62;55.95
80397;BME280;69721;55.894;-3.052;2024-03-08T08:08:12;101238.08;;;4.33;56.23
80397;BME280;69721;55.894;-3.052;2024-03-08T08:10:37;101233.14;;;4.71;54.71
80397;BME280;69721;55.894;-3.052;2024-03-08T08:13:03;101231.85;;;4.32;54.89
80397;BME280;69721;55.894;-3.052;2024-03-08T08:15:29;101230.23;;;5.53;52.90
80397;BME280;69721;55.894;-3.052;2024-03-08T08:17:54;101231.50;;;4.08;56.34
80397;BME280;69721;55.894;-3.052;2024-03-08T08:20:20;101236.76;;;4.28;56.97
80397;BME280;69721;55.894;-3.052;2024-03-08T08:22:45;101235.80;;;4.50;57.08
80397;BME280;69721;55.894;-3.052;2024-03-08T08:25:11;101235.65;;;4.25;57.52
80397;BME280;69721;55.894;-3.052;2024-03-08T08:27:37;101234.16;;;3.14;59.17
80397;BME280;69721;55.894;-3.052;2024-03-08T08:30:03;101232.44;;;2.56;60.97
80397;BME280;69721;55.894;-3.052;2024-03-08T08:32:28;101222.49;;;4.09;59.07
80397;BME280;69721;55.894;-3.052;2024-03-08T08:34:53;101225.21;;;3.17;60.01
80397;BME280;69721;55.894;-3.052;2024-03-08T08:37:19;101224.44;;;3.93;59.42
80397;BME280;69721;55.894;-3.052;2024-03-08T08:39:45;101220.02;;;3.81;59.08
80397;BME280;69721;55.894;-3.052;2024-03-08T08:42:10;101221.94;;;3.27;60.83
80397;BME280;69721;55.894;-3.052;2024-03-08T08:47:01;101211.06;;;5.27;56.27
80397;BME280;69721;55.894;-3.052;2024-03-08T08:49:26;101211.18;;;5.40;55.58
80397;BME280;69721;55.894;-3.052;2024-03-08T08:51:53;101209.32;;;5.11;55.96
80397;BME280;69721;55.894;-3.052;2024-03-08T08:54:18;101203.56;;;5.72;54.19
80397;BME280;69721;55.894;-3.052;2024-03-08T08:56:43;101204.86;;;6.61;53.67
80397;BME280;69721;55.894;-3.052;2024-03-08T08:59:09;101205.79;;;5.34;53.81
80397;BME280;69721;55.894;-3.052;2024-03-08T09:01:34;101205.38;;;6.26;52.37
80397;BME280;69721;55.894;-3.052;2024-03-08T09:03:59;101207.19;;;5.16;56.08
80397;BME280;69721;55.894;-3.052;2024-03-08T09:06:25;101203.30;;;3.50;58.04
80397;BME280;69721;55.894;-3.052;2024-03-08T09:08:50;101201.54;;;3.35;60.12
80397;BME280;69721;55.894;-3.052;2024-03-08T09:11:15;101208.88;;;2.67;61.67
80397;BME280;69721;55.894;-3.052;2024-03-08T09:13:43;101198.14;;;3.41;60.30
80397;BME280;69721;55.894;-3.052;2024-03-08T09:16:06;101194.16;;;3.54;60.34
80397;BME280;69721;55.894;-3.052;2024-03-08T09:18:32;101188.94;;;4.93;57.29
80397;BME280;69721;55.894;-3.052;2024-03-08T09:21:00;101188.96;;;4.15;59.13
80397;BME280;69721;55.894;-3.052;2024-03-08T09:23:23;101188.97;;;4.87;57.04
80397;BME280;69721;55.894;-3.052;2024-03-08T09:25:48;101183.49;;;3.87;58.64
80397;BME280;69721;55.894;-3.052;2024-03-08T09:28:14;101180.76;;;4.70;58.08
80397;BME280;69721;55.894;-3.052;2024-03-08T09:30:39;101175.42;;;4.96;57.41
80397;BME280;69721;55.894;-3.052;2024-03-08T09:33:05;101172.00;;;3.75;60.93
80397;BME280;69721;55.894;-3.052;2024-03-08T09:35:30;101163.75;;;4.11;60.04
80397;BME280;69721;55.894;-3.052;2024-03-08T09:37:56;101165.14;;;5.05;57.95
80397;BME280;69721;55.894;-3.052;2024-03-08T09:40:22;101161.06;;;4.52;58.17
80397;BME280;69721;55.894;-3.052;2024-03-08T09:42:49;101160.17;;;4.62;56.70
80397;BME280;69721;55.894;-3.052;2024-03-08T09:45:12;101154.94;;;5.35;55.39
80397;BME280;69721;55.894;-3.052;2024-03-08T09:47:39;101146.76;;;5.32;55.19
80397;BME280;69721;55.894;-3.052;2024-03-08T09:50:04;101142.47;;;4.93;54.46
80397;BME280;69721;55.894;-3.052;2024-03-08T09:52:29;101142.80;;;5.00;55.11
80397;BME280;69721;55.894;-3.052;2024-03-08T09:57:20;101136.62;;;5.77;53.42
80397;BME280;69721;55.894;-3.052;2024-03-08T09:59:50;101135.36;;;6.54;51.80
80397;BME280;69721;55.894;-3.052;2024-03-08T10:02:15;101132.53;;;5.12;54.04
80397;BME280;69721;55.894;-3.052;2024-03-08T10:04:39;101128.42;;;5.23;53.71
80397;BME280;69721;55.894;-3.052;2024-03-08T10:07:03;101133.15;;;4.75;56.26
80397;BME280;69721;55.894;-3.052;2024-03-08T10:09:28;101131.46;;;4.59;55.84
80397;BME280;69721;55.894;-3.052;2024-03-08T10:11:56;101131.31;;;3.49;58.49
80397;BME280;69721;55.894;-3.052;2024-03-08T10:14:20;101127.78;;;4.33;58.10
80397;BME280;69721;55.894;-3.052;2024-03-08T10:16:45;101124.34;;;4.09;57.52
80397;BME280;69721;55.894;-3.052;2024-03-08T10:19:11;101120.77;;;4.25;56.94
80397;BME280;69721;55.894;-3.052;2024-03-08T10:21:36;101120.45;;;5.01;55.49
80397;BME280;69721;55.894;-3.052;2024-03-08T10:24:02;101115.18;;;3.71;57.45
80397;BME280;69721;55.894;-3.052;2024-03-08T10:26:27;101115.52;;;3.95;58.13
80397;BME280;69721;55.894;-3.052;2024-03-08T10:28:53;101115.62;;;4.14;56.37
80397;BME280;69721;55.894;-3.052;2024-03-08T10:31:34;101120.90;;;4.56;57.18
80397;BME280;69721;55.894;-3.052;2024-03-08T10:33:58;101118.97;;;3.43;58.81
80397;BME280;69721;55.894;-3.052;2024-03-08T10:36:25;101110.46;;;4.26;55.51
80397;BME280;69721;55.894;-3.052;2024-03-08T10:38:52;101112.80;;;5.25;54.83
80397;BME280;69721;55.894;-3.052;2024-03-08T10:41:16;101110.87;;;4.12;55.83
80397;BME280;69721;55.894;-3.052;2024-03-08T10:44:00;101107.59;;;4.79;54.38
80397;BME280;69721;55.894;-3.052;2024-03-08T10:46:25;101108.09;;;3.92;54.60
80397;BME280;69721;55.894;-3.052;2024-03-08T10:48:44;101097.87;;;5.80;51.37
80397;BME280;69721;55.894;-3.052;2024-03-08T10:51:05;101098.81;;;5.04;52.06
80397;BME280;69721;55.894;-3.052;2024-03-08T10:53:31;101097.42;;;5.48;50.99
80397;BME280;69721;55.894;-3.052;2024-03-08T10:55:57;101091.91;;;5.08;51.13
80397;BME280;69721;55.894;-3.052;2024-03-08T10:58:24;101088.62;;;6.34;48.69
80397;BME280;69721;55.894;-3.052;2024-03-08T11:00:48;101079.07;;;5.49;48.25
80397;BME280;69721;55.894;-3.052;2024-03-08T11:05:41;101084.27;;;5.12;49.66
80397;BME280;69721;55.894;-3.052;2024-03-08T11:10:29;101077.36;;;5.54;48.82
80397;BME280;69721;55.894;-3.052;2024-03-08T11:12:57;101073.19;;;5.86;48.81
80397;BME280;69721;55.894;-3.052;2024-03-08T11:15:27;101067.66;;;5.35;48.85
80397;BME280;69721;55.894;-3.052;2024-03-08T11:17:49;101060.10;;;6.96;46.35
80397;BME280;69721;55.894;-3.052;2024-03-08T11:20:14;101055.83;;;5.46;48.84
80397;BME280;69721;55.894;-3.052;2024-03-08T11:22:39;101053.56;;;5.04;48.80
80397;BME280;69721;55.894;-3.052;2024-03-08T11:25:06;101054.32;;;6.39;46.72
80397;BME280;69721;55.894;-3.052;2024-03-08T11:27:30;101053.50;;;5.95;47.35
80397;BME280;69721;55.894;-3.052;2024-03-08T11:30:02;101055.35;;;5.86;48.09
80397;BME280;69721;55.894;-3.052;2024-03-08T11:32:20;101050.40;;;4.21;50.86
80397;BME280;69721;55.894;-3.052;2024-03-08T11:34:47;101048.08;;;6.37;48.02
80397;BME280;69721;55.894;-3.052;2024-03-08T11:37:38;101042.90;;;6.52;47.97
80397;BME280;69721;55.894;-3.052;2024-03-08T11:40:11;101041.09;;;5.54;49.04
80397;BME280;69721;55.894;-3.052;2024-03-08T11:42:29;101045.66;;;5.42;50.66
80397;BME280;69721;55.894;-3.052;2024-03-08T11:44:55;101039.50;;;6.06;48.67
80397;BME280;69721;55.894;-3.052;2024-03-08T11:47:21;101030.35;;;6.08;49.62
80397;BME280;69721;55.894;-3.052;2024-03-08T11:49:46;101041.93;;;4.67;52.37
80397;BME280;69721;55.894;-3.052;2024-03-08T11:52:12;101039.03;;;4.89;52.52
80397;BME280;69721;55.894;-3.052;2024-03-08T11:54:37;101033.98;;;4.92;51.28
80397;BME280;69721;55.894;-3.052;2024-03-08T11:57:04;101029.59;;;4.04;53.88
80397;BME280;69721;55.894;-3.052;2024-03-08T11:59:28;101029.81;;;4.87;52.82
80397;BME280;69721;55.894;-3.052;2024-03-08T12:02:01;101020.41;;;5.57;51.07
80397;BME280;69721;55.894;-3.052;2024-03-08T12:04:20;101020.83;;;5.78;49.70
80397;BME280;69721;55.894;-3.052;2024-03-08T12:06:45;101013.93;;;6.96;48.48
80397;BME280;69721;55.894;-3.052;2024-03-08T12:09:11;101016.43;;;5.49;51.30
80397;BME280;69721;55.894;-3.052;2024-03-08T12:11:36;101021.74;;;5.97;51.29
80397;BME280;69721;55.894;-3.052;2024-03-08T12:16:26;101005.10;;;6.69;48.25
80397;BME280;69721;55.894;-3.052;2024-03-08T12:18:52;100999.57;;;7.46;48.14
80397;BME280;69721;55.894;-3.052;2024-03-08T12:21:17;100997.19;;;6.72;48.57
80397;BME280;69721;55.894;-3.052;2024-03-08T12:23:45;100997.52;;;6.43;47.74
80397;BME280;69721;55.894;-3.052;2024-03-08T12:26:10;100992.44;;;6.49;48.03
80397;BME280;69721;55.894;-3.052;2024-03-08T12:28:34;100995.26;;;5.94;49.30
80397;BME280;69721;55.894;-3.052;2024-03-08T12:31:00;100989.16;;;5.41;49.89
80397;BME280;69721;55.894;-3.052;2024-03-08T12:33:24;100983.58;;;7.72;46.11
80397;BME280;69721;55.894;-3.052;2024-03-08T12:35:52;100979.75;;;7.97;46.27
80397;BME280;69721;55.894;-3.052;2024-03-08T12:38:16;100976.74;;;6.41;47.77
80397;BME280;69721;55.894;-3.052;2024-03-08T12:40:41;100974.86;;;6.90;46.87
80397;BME280;69721;55.894;-3.052;2024-03-08T12:43:07;100973.68;;;6.23;47.91
80397;BME280;69721;55.894;-3.052;2024-03-08T12:45:32;100972.25;;;5.73;48.65
80397;BME280;69721;55.894;-3.052;2024-03-08T12:47:58;100973.42;;;5.53;48.14
80397;BME280;69721;55.894;-3.052;2024-03-08T12:50:23;100969.21;;;6.06;47.35
80397;BME280;69721;55.894;-3.052;2024-03-08T12:52:48;100960.25;;;6.57;46.51
80397;BME280;69721;55.894;-3.052;2024-03-08T12:55:14;100958.92;;;5.53;47.37
80397;BME280;69721;55.894;-3.052;2024-03-08T12:57:38;100967.12;;;5.27;49.75
80397;BME280;69721;55.894;-3.052;2024-03-08T13:00:06;100961.53;;;4.63;51.91
80397;BME280;69721;55.894;-3.052;2024-03-08T13:02:31;100954.18;;;5.39;51.17
80397;BME280;69721;55.894;-3.052;2024-03-08T13:04:56;100950.14;;;3.96;53.46
80397;BME280;69721;55.894;-3.052;2024-03-08T13:07:21;100951.31;;;5.04;52.23
80397;BME280;69721;55.894;-3.052;2024-03-08T13:09:48;100955.69;;;4.56;54.24